Time;durP1;ratioP1;P1;durP2;ratioP2;P2;SDS_P1;SDS_P2;PMS_P1;PMS_P2;Temp;Humidity;BMP_temperature;BMP_pressure;BME280_temperature;BME280_humidity;BME280_pressure;Samples;Min_cycle;Max_cycle;Signal;HPM_P1;HPM_P2
2021/03/16 00:02:22;;;;;;;12.80;10.13;;;;;;;2.78;100.00;96177.59;5011546;28;20072;-53
2021/03/16 00:04:49;;;;;;;11.25;9.68;;;;;;;2.80;100.00;96178.34;5042455;28;20107;-55
2021/03/16 00:07:18;;;;;;;13.27;9.90;;;;;;;2.78;100.00;96182.81;5002588;28;20545;-53
2021/03/16 00:09:46;;;;;;;13.02;10.05;;;;;;;2.77;100.00;96178.56;5034684;28;20068;-53
2021/03/16 00:12:13;;;;;;;12.43;9.93;;;;;;;2.77;100.00;96186.38;4999718;28;20073;-56
2021/03/16 00:14:40;;;;;;;10.13;6.68;;;;;;;2.80;100.00;96183.56;5038385;28;20064;-47
2021/03/16 00:17:08;;;;;;;13.52;10.38;;;;;;;2.83;100.00;96195.53;5004113;28;20529;-52
2021/03/16 00:19:36;;;;;;;14.70;11.30;;;;;;;2.79;100.00;96183.69;5040404;28;20069;-52
2021/03/16 00:22:04;;;;;;;14.10;11.23;;;;;;;2.96;100.00;96187.72;5005390;28;20139;-56
2021/03/16 00:24:32;;;;;;;12.45;9.55;;;;;;;2.93;100.00;96190.56;5028311;28;20533;-55
2021/03/16 00:27:00;;;;;;;14.75;10.73;;;;;;;2.94;100.00;96197.41;5007871;28;20064;-54
2021/03/16 00:29:27;;;;;;;13.90;10.73;;;;;;;2.99;100.00;96190.09;5039096;28;20080;-52
2021/03/16 00:31:54;;;;;;;12.25;9.57;;;;;;;3.00;100.00;96197.84;5010529;28;20080;-52
2021/03/16 00:34:22;;;;;;;13.00;9.82;;;;;;;2.97;100.00;96207.63;5040169;28;20115;-55
2021/03/16 00:36:50;;;;;;;17.05;12.90;;;;;;;3.09;100.00;96202.41;5020404;28;20072;-47
2021/03/16 00:39:17;;;;;;;15.35;11.18;;;;;;;3.02;100.00;96202.94;5028565;28;20061;-51
2021/03/16 00:41:45;;;;;;;14.88;11.20;;;;;;;3.04;100.00;96209.72;5045249;28;20524;-55
2021/03/16 00:44:13;;;;;;;14.20;11.10;;;;;;;3.04;100.00;96222.72;5002363;28;20449;-54
2021/03/16 00:46:40;;;;;;;17.65;11.48;;;;;;;3.00;100.00;96215.25;5046796;28;20109;-52
2021/03/16 00:49:08;;;;;;;14.73;11.40;;;;;;;3.14;100.00;96215.13;5006393;28;20064;-49
2021/03/16 00:51:36;;;;;;;14.57;12.20;;;;;;;3.27;100.00;96217.72;5041469;28;20521;-48
2021/03/16 00:54:04;;;;;;;16.67;11.90;;;;;;;3.25;100.00;96209.16;5012826;28;20061;-54
2021/03/16 00:56:31;;;;;;;15.77;11.90;;;;;;;3.33;100.00;96212.91;5046731;28;20067;-53
2021/03/16 00:58:59;;;;;;;18.65;12.18;;;;;;;3.23;100.00;96211.88;5015056;28;20075;-48
2021/03/16 01:01:27;;;;;;;15.90;12.05;;;;;;;3.24;100.00;96217.94;5043382;28;20068;-48
2021/03/16 01:03:55;;;;;;;9.48;7.65;;;;;;;3.20;100.00;96212.09;5017317;28;20576;-50
2021/03/16 01:06:22;;;;;;;11.07;8.02;;;;;;;3.19;100.00;96212.19;5045068;28;20516;-54
2021/03/16 01:08:52;;;;;;;15.87;12.37;;;;;;;3.22;100.00;96214.59;5006000;28;20069;-51
2021/03/16 01:11:19;;;;;;;16.73;11.00;;;;;;;3.32;100.00;96220.84;5036055;28;20872;-49
2021/03/16 01:13:46;;;;;;;14.05;10.00;;;;;;;3.31;100.00;96222.63;5012355;28;20096;-49
2021/03/16 01:16:15;;;;;;;9.85;6.93;;;;;;;3.28;100.00;96229.81;5041092;28;20064;-49
2021/03/16 01:18:44;;;;;;;15.07;11.50;;;;;;;3.38;100.00;96223.03;5009682;28;22970;-49
2021/03/16 01:21:11;;;;;;;14.48;10.00;;;;;;;3.36;100.00;96224.06;5042122;28;20068;-53
2021/03/16 01:23:39;;;;;;;15.52;10.00;;;;;;;3.35;100.00;96225.00;5015839;28;20735;-57
2021/03/16 01:26:07;;;;;;;13.45;9.20;;;;;;;3.33;100.00;96232.91;5036506;28;20072;-47
2021/03/16 01:28:35;;;;;;;15.15;9.48;;;;;;;3.32;100.00;96220.84;5041192;28;20072;-50
2021/03/16 01:31:03;;;;;;;15.30;11.00;;;;;;;3.35;100.00;96231.06;5011821;28;20077;-50
2021/03/16 01:33:32;;;;;;;16.10;10.05;;;;;;;3.33;100.00;96230.31;5041038;28;20276;-51
2021/03/16 01:36:00;;;;;;;19.48;9.73;;;;;;;3.30;100.00;96223.56;5013854;28;20517;-54
2021/03/16 01:38:27;;;;;;;15.43;10.30;;;;;;;3.35;100.00;96231.06;5037559;28;20476;-48
2021/03/16 01:40:54;;;;;;;11.27;8.82;;;;;;;3.25;100.00;96237.84;5010295;28;20076;-51
2021/03/16 01:43:25;;;;;;;14.10;9.07;;;;;;;3.32;100.00;96237.31;5038801;28;20076;-50
2021/03/16 01:45:52;;;;;;;12.23;8.85;;;;;;;3.31;100.00;96240.03;4995578;28;20571;-50
2021/03/16 01:48:23;;;;;;;10.95;7.00;;;;;;;3.43;100.00;96231.34;5044303;28;20080;-52
2021/03/16 01:50:51;;;;;;;13.38;9.70;;;;;;;3.38;100.00;96235.22;5011896;28;20073;-48
2021/03/16 01:53:19;;;;;;;10.93;8.50;;;;;;;3.32;100.00;96233.88;5034349;28;20104;-50
2021/03/16 01:55:47;;;;;;;12.05;8.32;;;;;;;3.34;100.00;96229.41;5009124;28;20513;-53
2021/03/16 01:58:14;;;;;;;11.32;8.65;;;;;;;3.32;100.00;96236.47;5045102;28;20073;-52
2021/03/16 02:00:43;;;;;;;11.35;8.43;;;;;;;3.34;100.00;96239.81;5009413;28;20076;-54
2021/03/16 02:03:12;;;;;;;13.15;9.38;;;;;;;3.31;100.00;96237.41;5039004;28;20061;-56
2021/03/16 02:05:41;;;;;;;10.35;7.97;;;;;;;3.30;100.00;96247.00;5008756;28;20080;-48
2021/03/16 02:08:18;;;;;;;12.07;8.82;;;;;;;3.32;100.00;96250.34;5042907;28;20081;-52
2021/03/16 02:10:55;;;;;;;13.52;8.95;;;;;;;3.44;100.00;96246.06;5002673;28;22617;-54
2021/03/16 02:13:27;;;;;;;9.15;7.50;;;;;;;3.40;100.00;96249.81;5038815;28;20095;-53
2021/03/16 02:15:58;;;;;;;14.50;9.77;;;;;;;3.33;100.00;96245.94;5012285;28;20064;-51
2021/03/16 02:18:31;;;;;;;15.95;9.57;;;;;;;3.33;100.00;96251.16;5037764;28;20080;-48
2021/03/16 02:21:15;;;;;;;7.43;6.57;;;;;;;3.25;100.00;96237.84;5003541;28;20072;-49
2021/03/16 02:24:00;;;;;;;17.15;8.52;;;;;;;3.18;100.00;96237.41;5034200;28;20072;-51
2021/03/16 02:26:53;;;;;;;11.13;8.50;;;;;;;3.25;100.00;96243.88;5008026;28;20076;-49
2021/03/16 02:29:24;;;;;;;10.15;7.60;;;;;;;3.29;100.00;96234.06;5039565;28;20139;-52
2021/03/16 02:31:56;;;;;;;10.75;7.55;;;;;;;3.23;100.00;96242.31;5011463;28;20076;-51
2021/03/16 02:34:25;;;;;;;11.97;7.87;;;;;;;3.23;100.00;96256.16;5043614;28;20061;-49
2021/03/16 02:36:53;;;;;;;9.52;7.40;;;;;;;3.26;100.00;96252.53;5006838;28;21305;-52
2021/03/16 02:39:21;;;;;;;11.13;8.10;;;;;;;3.22;100.00;96257.13;5037951;28;20076;-51
2021/03/16 02:41:50;;;;;;;12.85;7.68;;;;;;;3.28;100.00;96264.53;5004863;28;20084;-53
2021/03/16 02:44:18;;;;;;;10.75;7.43;;;;;;;3.28;100.00;96258.47;5036467;28;20543;-51
2021/03/16 02:46:49;;;;;;;12.55;7.35;;;;;;;3.24;100.00;96257.03;5044377;28;20480;-55
2021/03/16 02:49:17;;;;;;;9.57;7.60;;;;;;;3.30;100.00;96261.78;5023687;28;20524;-49
2021/03/16 02:51:45;;;;;;;15.25;9.38;;;;;;;3.28;100.00;96255.88;5026119;28;20069;-52
2021/03/16 02:54:13;;;;;;;10.90;6.82;;;;;;;3.16;100.00;96267.13;5004841;28;20076;-50
2021/03/16 02:56:41;;;;;;;10.60;7.47;;;;;;;3.19;100.00;96266.91;5042368;28;20061;-53
2021/03/16 02:59:10;;;;;;;11.35;7.45;;;;;;;3.18;100.00;96262.66;5014243;28;20475;-49
2021/03/16 03:01:39;;;;;;;9.80;5.88;;;;;;;3.22;100.00;96269.31;5043206;28;20081;-53
2021/03/16 03:04:08;;;;;;;11.07;6.90;;;;;;;3.28;100.00;96261.91;5012855;28;20084;-54
2021/03/16 03:06:38;;;;;;;9.25;6.68;;;;;;;3.29;100.00;96270.56;5040655;28;20069;-51
2021/03/16 03:09:07;;;;;;;11.13;7.78;;;;;;;3.20;100.00;96268.56;4946019;28;20069;-49
2021/03/16 03:11:34;;;;;;;16.02;9.20;;;;;;;3.14;100.00;96269.84;5023090;28;20065;-52
2021/03/16 03:14:03;;;;;;;8.85;6.43;;;;;;;3.27;100.00;96280.28;5000986;28;20544;-49
2021/03/16 03:16:31;;;;;;;11.55;7.15;;;;;;;3.20;100.00;96279.84;5042411;28;20084;-53
2021/03/16 03:18:59;;;;;;;10.88;7.20;;;;;;;3.19;100.00;96288.59;5001207;28;20061;-48
2021/03/16 03:21:30;;;;;;;11.50;7.45;;;;;;;3.15;100.00;96291.50;5041132;28;20064;-49
2021/03/16 03:24:04;;;;;;;12.07;7.90;;;;;;;3.24;100.00;96286.53;4996883;28;20072;-53
2021/03/16 03:26:36;;;;;;;13.55;6.57;;;;;;;3.10;100.00;96286.63;5040516;28;20065;-49
2021/03/16 03:29:05;;;;;;;9.38;5.88;;;;;;;3.24;100.00;96302.16;5008047;28;20513;-49
2021/03/16 03:31:33;;;;;;;14.20;8.77;;;;;;;3.20;100.00;96302.44;5031379;28;20496;-51
2021/03/16 03:34:02;;;;;;;11.63;7.57;;;;;;;3.25;100.00;96303.81;5007119;28;20083;-48
2021/03/16 03:36:31;;;;;;;12.40;7.53;;;;;;;3.19;100.00;96301.59;5039028;28;20458;-50
2021/03/16 03:38:59;;;;;;;13.27;8.05;;;;;;;3.18;100.00;96301.72;5007097;28;20488;-48
2021/03/16 03:41:26;;;;;;;9.98;6.57;;;;;;;3.21;100.00;96309.34;5039559;28;20060;-53
2021/03/16 03:43:54;;;;;;;12.25;8.52;;;;;;;3.24;100.00;96309.13;5040554;28;20466;-51
2021/03/16 03:46:21;;;;;;;18.52;8.38;;;;;;;3.19;100.00;96314.63;5003213;28;20456;-48
2021/03/16 03:48:50;;;;;;;9.13;5.75;;;;;;;3.04;100.00;96305.25;5036935;28;20068;-49
2021/03/16 03:51:20;;;;;;;11.55;7.55;;;;;;;3.01;100.00;96313.28;5001887;28;20079;-49
2021/03/16 03:53:49;;;;;;;10.38;6.00;;;;;;;3.14;100.00;96323.72;5040981;28;20076;-54
2021/03/16 03:59:10;;;;;;;15.90;10.35;;;;;;;3.05;100.00;96315.56;8385652;27;74925;-50
2021/03/16 04:03:12;;;;;;;9.68;6.85;;;;;;;2.97;100.00;96330.88;8287721;28;20045;-51
2021/03/16 04:07:16;;;;;;;11.88;7.80;;;;;;;3.06;100.00;96326.81;8284685;28;20038;-54
2021/03/16 04:11:19;;;;;;;12.32;8.20;;;;;;;3.06;100.00;96335.50;8350240;28;20396;-48
2021/03/16 04:15:23;;;;;;;11.18;7.78;;;;;;;3.03;100.00;96327.88;8385799;28;20051;-55
2021/03/16 04:19:26;;;;;;;10.73;6.03;;;;;;;3.14;100.00;96344.56;8384951;28;20044;-50
2021/03/16 04:23:28;;;;;;;11.07;7.35;;;;;;;3.12;100.00;96341.22;8352439;28;20044;-56
2021/03/16 04:27:31;;;;;;;11.40;6.07;;;;;;;3.20;100.00;96338.91;8385677;28;20036;-50
2021/03/16 04:31:34;;;;;;;13.90;6.97;;;;;;;3.03;100.00;96342.66;8387295;28;20060;-49
2021/03/16 04:35:37;;;;;;;8.02;5.70;;;;;;;3.04;100.00;96352.97;8411199;28;20024;-51
2021/03/16 04:39:40;;;;;;;12.63;7.93;;;;;;;3.10;100.00;96359.56;8381142;28;20053;-54
2021/03/16 04:43:45;;;;;;;15.30;7.80;;;;;;;3.03;100.00;96363.50;8375613;27;20055;-48
2021/03/16 04:47:48;;;;;;;16.30;8.63;;;;;;;3.07;100.00;96363.19;8378109;28;20043;-48
2021/03/16 04:51:51;;;;;;;12.23;6.72;;;;;;;3.03;100.00;96372.16;8382946;27;20109;-50
2021/03/16 04:55:54;;;;;;;14.18;5.80;;;;;;;3.07;100.00;96378.81;8411895;28;20033;-47
2021/03/16 05:00:13;;;;;;;9.15;5.88;;;;;;;3.03;100.00;96377.38;8379682;28;20037;-53
2021/03/16 05:04:17;;;;;;;14.20;6.93;;;;;;;3.02;100.00;96377.44;8386193;28;20040;-53
2021/03/16 05:08:19;;;;;;;11.45;6.85;;;;;;;2.91;100.00;96383.34;8366410;28;20032;-52
2021/03/16 05:12:22;;;;;;;10.00;6.00;;;;;;;2.93;100.00;96386.72;8389308;28;20032;-53
2021/03/16 05:16:25;;;;;;;13.02;7.50;;;;;;;2.96;100.00;96390.88;8352028;28;20032;-53
2021/03/16 05:20:30;;;;;;;14.07;7.70;;;;;;;3.01;100.00;96397.47;8326834;28;20408;-54
2021/03/16 05:24:33;;;;;;;13.05;7.25;;;;;;;2.79;100.00;96397.19;8355871;28;20055;-52
2021/03/16 05:28:36;;;;;;;17.77;8.80;;;;;;;2.70;100.00;96401.19;8360637;28;20036;-52
2021/03/16 05:32:39;;;;;;;11.70;6.30;;;;;;;2.72;100.00;96411.50;8367437;28;20155;-50
2021/03/16 05:36:42;;;;;;;13.07;7.35;;;;;;;2.78;100.00;96404.13;8351846;28;20033;-50
2021/03/16 05:40:45;;;;;;;15.82;7.30;;;;;;;2.74;100.00;96422.66;8357464;28;20036;-52
2021/03/16 05:44:48;;;;;;;15.63;8.68;;;;;;;2.83;100.00;96422.09;8354415;28;20032;-51
2021/03/16 05:48:52;;;;;;;10.02;7.20;;;;;;;2.77;100.00;96430.28;8392026;28;20048;-48
2021/03/16 05:52:55;;;;;;;15.10;7.90;;;;;;;2.77;100.00;96430.28;8357052;28;20398;-47
2021/03/16 05:56:58;;;;;;;15.40;8.55;;;;;;;2.78;100.00;96448.41;8355939;28;20051;-47
2021/03/16 06:01:01;;;;;;;14.88;7.78;;;;;;;2.74;100.00;96451.31;8362251;28;20033;-55
2021/03/16 06:05:04;;;;;;;16.98;7.38;;;;;;;2.60;100.00;96455.63;8357292;28;20047;-49
2021/03/16 06:09:07;;;;;;;8.85;6.22;;;;;;;2.83;100.00;96458.56;8375742;28;20037;-51
2021/03/16 06:13:11;;;;;;;13.93;8.70;;;;;;;2.74;100.00;96459.13;8356221;28;20083;-52
2021/03/16 06:17:16;;;;;;;13.27;7.78;;;;;;;2.78;100.00;96461.44;8351707;28;20044;-47
2021/03/16 06:21:20;;;;;;;12.88;7.60;;;;;;;2.78;100.00;96468.41;8352156;28;20040;-53
2021/03/16 06:25:30;;;;;;;14.55;6.85;;;;;;;2.90;100.00;96472.84;8358062;28;20049;-52
2021/03/16 06:29:40;;;;;;;16.88;6.38;;;;;;;2.97;100.00;96471.53;8386421;28;20036;-47
2021/03/16 06:33:42;;;;;;;12.02;7.25;;;;;;;3.02;100.00;96474.66;8361208;28;20609;-51
2021/03/16 06:38:00;;;;;;;29.00;7.18;;;;;;;3.17;100.00;96475.47;8354006;28;20498;-51
2021/03/16 06:42:04;;;;;;;8.50;5.65;;;;;;;3.19;100.00;96489.22;8351822;28;20574;-49
2021/03/16 06:46:07;;;;;;;9.15;6.00;;;;;;;3.24;100.00;96486.34;8370855;28;20044;-53
2021/03/16 06:50:11;;;;;;;12.60;7.75;;;;;;;3.30;100.00;96493.72;8379917;28;20043;-53
2021/03/16 06:54:14;;;;;;;11.55;7.90;;;;;;;3.27;100.00;96496.56;8357326;28;20047;-47
2021/03/16 06:58:22;;;;;;;10.13;6.80;;;;;;;3.26;100.00;96515.72;8357397;28;20048;-53
2021/03/16 07:02:24;;;;;;;10.32;7.50;;;;;;;3.11;100.00;96514.09;8353827;28;20048;-48
2021/03/16 07:06:28;;;;;;;13.35;7.05;;;;;;;2.96;100.00;96528.91;8379973;28;20426;-53
2021/03/16 07:10:31;;;;;;;10.93;7.35;;;;;;;2.84;100.00;96528.75;8360036;28;20047;-48
2021/03/16 07:14:35;;;;;;;10.98;6.35;;;;;;;2.91;100.00;96530.97;8354387;28;20051;-48
2021/03/16 07:18:38;;;;;;;11.98;7.75;;;;;;;3.10;100.00;96536.72;8358528;28;20052;-50
2021/03/16 07:22:48;;;;;;;13.35;6.03;;;;;;;3.05;100.00;96534.38;8350481;28;20041;-53
2021/03/16 07:26:51;;;;;;;6.40;3.97;;;;;;;2.97;100.00;96557.47;8385572;28;20036;-53
2021/03/16 07:30:54;;;;;;;5.93;4.30;;;;;;;2.69;100.00;96562.72;8357559;28;20040;-51
2021/03/16 07:35:01;;;;;;;7.55;4.03;;;;;;;2.49;100.00;96562.16;8357997;28;20043;-50
2021/03/16 07:39:06;;;;;;;6.32;4.63;;;;;;;2.56;100.00;96573.03;8346676;28;21299;-49
2021/03/16 07:43:10;;;;;;;7.25;4.72;;;;;;;2.34;100.00;96581.28;8385436;28;20045;-49
2021/03/16 07:47:14;;;;;;;10.15;5.75;;;;;;;2.66;100.00;96576.75;8351176;28;20410;-50
2021/03/16 07:51:18;;;;;;;7.55;5.32;;;;;;;2.92;100.00;96585.56;8354348;28;20040;-50
2021/03/16 07:55:26;;;;;;;8.60;5.53;;;;;;;3.17;100.00;96582.28;8354558;28;20036;-51
2021/03/16 07:59:31;;;;;;;6.00;4.13;;;;;;;3.44;100.00;96584.06;8346899;28;20048;-54
2021/03/16 08:03:35;;;;;;;5.20;4.60;;;;;;;3.83;100.00;96585.91;8386136;28;20410;-53
2021/03/16 08:07:38;;;;;;;7.28;5.25;;;;;;;4.01;100.00;96591.69;8357129;28;20041;-47
2021/03/16 08:11:41;;;;;;;8.13;4.10;;;;;;;3.96;100.00;96592.00;8347836;28;20040;-49
2021/03/16 08:15:45;;;;;;;8.55;5.78;;;;;;;4.23;100.00;96598.91;8354910;28;20032;-47
2021/03/16 08:19:49;;;;;;;5.32;4.38;;;;;;;4.12;100.00;96593.56;8358927;28;20044;-50
2021/03/16 08:24:02;;;;;;;6.00;4.65;;;;;;;4.31;100.00;96601.88;8376451;28;20044;-51
2021/03/16 08:28:08;;;;;;;10.32;5.28;;;;;;;4.68;100.00;96612.41;8357706;28;20041;-52
2021/03/16 08:32:14;;;;;;;10.40;4.10;;;;;;;4.37;100.00;96611.91;8354763;28;20048;-53
2021/03/16 08:36:18;;;;;;;7.82;4.95;;;;;;;4.60;100.00;96609.50;8352673;28;20032;-53
2021/03/16 08:40:22;;;;;;;5.40;4.15;;;;;;;4.53;100.00;96614.31;8385653;28;20107;-53
2021/03/16 08:44:25;;;;;;;6.88;4.40;;;;;;;4.57;100.00;96620.16;8355014;28;20063;-54
2021/03/16 08:48:29;;;;;;;6.35;4.28;;;;;;;4.89;100.00;96624.03;8354318;28;20056;-48
2021/03/16 08:52:33;;;;;;;6.78;4.35;;;;;;;4.99;100.00;96625.06;8359630;28;20119;-50
2021/03/16 08:56:35;;;;;;;6.32;4.18;;;;;;;4.85;100.00;96629.56;8359135;28;20037;-53
2021/03/16 09:00:38;;;;;;;7.25;4.53;;;;;;;5.24;100.00;96628.59;8374897;28;20052;-52
2021/03/16 09:04:42;;;;;;;4.13;3.47;;;;;;;4.94;100.00;96623.69;8361700;28;20033;-51
2021/03/16 09:08:49;;;;;;;4.60;3.63;;;;;;;5.12;100.00;96626.81;8359993;28;20398;-52
2021/03/16 09:12:52;;;;;;;6.78;3.92;;;;;;;4.99;100.00;96629.47;8356288;28;20039;-49
2021/03/16 09:16:55;;;;;;;7.35;4.28;;;;;;;5.01;100.00;96638.00;8390382;28;20033;-54
2021/03/16 09:21:04;;;;;;;4.43;3.70;;;;;;;4.98;100.00;96641.66;8372874;28;20710;-49
2021/03/16 09:25:09;;;;;;;11.50;4.63;;;;;;;5.21;100.00;96644.47;8354950;28;20028;-48
2021/03/16 09:29:11;;;;;;;5.57;4.20;;;;;;;5.22;100.00;96638.31;8356674;28;20391;-53
2021/03/16 09:33:19;;;;;;;6.38;4.35;;;;;;;5.00;100.00;96652.03;8361671;28;20561;-48
2021/03/16 09:37:22;;;;;;;7.22;3.90;;;;;;;5.14;100.00;96651.91;8387433;28;20036;-50
2021/03/16 09:41:26;;;;;;;7.65;3.95;;;;;;;4.80;100.00;96645.56;8356620;28;20040;-47
2021/03/16 09:45:30;;;;;;;8.38;3.88;;;;;;;4.93;100.00;96659.47;8355000;28;20036;-49
2021/03/16 09:49:34;;;;;;;6.30;4.28;;;;;;;4.60;100.00;96656.50;8352926;28;20037;-52
2021/03/16 09:53:38;;;;;;;7.25;3.97;;;;;;;4.63;100.00;96658.91;8351526;28;20041;-54
2021/03/16 09:57:47;;;;;;;6.57;3.90;;;;;;;4.61;100.00;96655.56;8386737;28;20047;-50
2021/03/16 10:01:49;;;;;;;7.30;4.10;;;;;;;5.11;100.00;96659.97;8359752;28;20033;-51
2021/03/16 10:06:02;;;;;;;5.43;3.80;;;;;;;4.30;100.00;96655.00;8360244;28;20044;-49
2021/03/16 10:10:13;;;;;;;10.73;4.45;;;;;;;4.31;100.00;96654.06;8351900;28;20063;-47
2021/03/16 10:14:25;;;;;;;6.07;4.10;;;;;;;4.77;100.00;96664.03;8351550;28;20051;-49
2021/03/16 10:18:29;;;;;;;9.18;3.08;;;;;;;5.15;100.00;96664.03;8389052;28;20066;-54
2021/03/16 10:22:33;;;;;;;10.95;3.85;;;;;;;5.55;100.00;96653.41;8346207;28;20048;-54
2021/03/16 10:26:36;;;;;;;6.90;3.85;;;;;;;5.36;100.00;96653.84;8357145;28;20044;-55
2021/03/16 10:30:42;;;;;;;5.35;3.20;;;;;;;6.24;100.00;96658.09;8360048;28;20041;-52
2021/03/16 10:34:45;;;;;;;6.95;3.25;;;;;;;5.76;100.00;96644.97;8387968;28;20048;-53
2021/03/16 10:38:49;;;;;;;9.88;3.35;;;;;;;5.58;100.00;96644.50;8358289;28;20079;-51
2021/03/16 10:42:52;;;;;;;7.28;3.25;;;;;;;5.38;100.00;96651.97;8356104;28;20039;-51
2021/03/16 10:46:55;;;;;;;3.80;3.30;;;;;;;5.13;100.00;96654.66;8347837;28;20399;-54
2021/03/16 10:51:10;;;;;;;8.38;3.67;;;;;;;5.25;100.00;96656.41;8347215;28;20048;-58
2021/03/16 10:55:13;;;;;;;5.38;3.63;;;;;;;4.89;100.00;96657.16;8387839;28;20036;-57
2021/03/16 10:59:15;;;;;;;3.63;3.33;;;;;;;4.65;100.00;96673.56;8356411;28;20036;-50
2021/03/16 11:03:19;;;;;;;6.45;3.65;;;;;;;5.09;100.00;96680.13;8356281;28;20040;-59
2021/03/16 11:07:21;;;;;;;7.05;3.72;;;;;;;5.46;100.00;96672.34;8353249;28;20036;-57
2021/03/16 11:11:24;;;;;;;6.43;3.47;;;;;;;5.88;100.00;96655.41;8367514;28;20044;-53
2021/03/16 11:15:26;;;;;;;6.28;3.55;;;;;;;6.33;100.00;96663.50;8380323;28;20048;-57
2021/03/16 11:19:29;;;;;;;6.80;4.45;;;;;;;6.68;100.00;96651.31;8351727;28;20052;-59
2021/03/16 11:23:32;;;;;;;5.72;3.20;;;;;;;6.73;100.00;96660.50;8347827;28;20048;-57
2021/03/16 11:27:35;;;;;;;4.63;2.20;;;;;;;6.56;100.00;96667.00;8357359;28;20411;-56
2021/03/16 11:31:37;;;;;;;3.63;2.60;;;;;;;6.37;100.00;96669.34;8385065;28;20095;-55
2021/03/16 11:35:41;;;;;;;6.38;2.90;;;;;;;6.03;100.00;96674.41;8353952;28;20036;-59
2021/03/16 11:39:45;;;;;;;9.68;2.42;;;;;;;5.84;100.00;96668.78;8347136;28;20056;-58
2021/03/16 11:43:48;;;;;;;3.60;2.58;;;;;;;5.55;100.00;96679.56;8348818;28;20044;-57
2021/03/16 11:47:50;;;;;;;5.68;3.10;;;;;;;6.00;100.00;96676.44;8357244;28;20043;-51
2021/03/16 11:51:55;;;;;;;3.70;2.35;;;;;;;6.07;100.00;96665.38;8382033;28;20041;-60
2021/03/16 11:55:59;;;;;;;8.75;3.60;;;;;;;6.54;100.00;96676.78;8354808;28;20071;-59
2021/03/16 12:00:04;;;;;;;5.18;2.45;;;;;;;6.41;100.00;96682.09;8355023;28;20469;-58
2021/03/16 12:04:07;;;;;;;5.10;2.55;;;;;;;6.79;100.00;96670.53;8354382;28;20033;-59
2021/03/16 12:08:11;;;;;;;4.75;2.42;;;;;;;6.68;100.00;96659.19;8382327;28;20044;-57
2021/03/16 12:12:13;;;;;;;4.80;2.55;;;;;;;6.70;100.00;96665.97;8349596;28;20048;-59
2021/03/16 12:16:16;;;;;;;4.63;2.45;;;;;;;6.55;100.00;96660.09;8345682;28;20036;-59
2021/03/16 12:20:19;;;;;;;5.25;2.83;;;;;;;6.36;100.00;96660.63;8355675;28;20040;-59
2021/03/16 12:24:23;;;;;;;5.45;2.67;;;;;;;6.58;100.00;96659.88;8353039;28;20522;-58
2021/03/16 12:28:25;;;;;;;4.07;2.40;;;;;;;6.83;100.00;96661.47;8392423;28;20047;-58
2021/03/16 12:32:28;;;;;;;6.05;2.42;;;;;;;6.82;100.00;96665.03;8360306;28;20047;-58
2021/03/16 12:36:31;;;;;;;3.60;2.30;;;;;;;6.78;99.33;96663.63;8363641;28;20068;-55
2021/03/16 12:40:34;;;;;;;4.30;2.88;;;;;;;6.58;100.00;96670.34;8354110;28;20549;-60
2021/03/16 12:44:37;;;;;;;4.35;2.35;;;;;;;5.63;100.00;96676.41;8390035;28;20603;-58
2021/03/16 12:48:39;;;;;;;4.20;2.83;;;;;;;5.43;100.00;96681.25;8354153;28;20049;-58
2021/03/16 12:52:44;;;;;;;5.88;3.30;;;;;;;5.34;100.00;96673.22;8360276;28;20096;-55
2021/03/16 12:56:49;;;;;;;3.95;2.95;;;;;;;5.52;100.00;96674.53;8362032;28;20051;-58
2021/03/16 13:00:52;;;;;;;4.00;2.42;;;;;;;5.93;100.00;96679.47;8363951;28;20526;-58
2021/03/16 13:04:55;;;;;;;3.28;2.58;;;;;;;6.05;100.00;96669.88;8390315;28;20040;-56
2021/03/16 13:08:58;;;;;;;3.65;2.90;;;;;;;5.95;100.00;96668.88;8359577;28;20514;-58
2021/03/16 13:13:01;;;;;;;7.28;3.00;;;;;;;5.67;100.00;96686.53;8353854;28;20052;-58
2021/03/16 13:17:03;;;;;;;5.40;3.35;;;;;;;5.88;100.00;96678.09;8353249;28;20051;-56
2021/03/16 13:21:06;;;;;;;3.42;3.03;;;;;;;5.62;100.00;96675.56;8392213;28;20407;-58
2021/03/16 13:25:09;;;;;;;7.15;3.85;;;;;;;5.73;100.00;96693.13;8350717;28;20051;-59
2021/03/16 13:29:13;;;;;;;5.15;3.33;;;;;;;5.71;100.00;96692.38;8356738;28;20037;-57
2021/03/16 13:33:15;;;;;;;4.07;2.88;;;;;;;5.71;100.00;96689.75;8360259;28;20044;-60
2021/03/16 13:37:18;;;;;;;3.95;2.53;;;;;;;5.79;100.00;96682.22;8362514;28;20037;-54
2021/03/16 13:41:21;;;;;;;5.97;3.13;;;;;;;6.11;100.00;96682.53;8387359;28;20036;-52
2021/03/16 13:45:25;;;;;;;4.72;2.67;;;;;;;6.07;100.00;96694.19;8350012;28;20044;-56
2021/03/16 13:49:27;;;;;;;6.70;2.88;;;;;;;6.28;100.00;96697.03;8355529;28;20423;-57
2021/03/16 13:53:30;;;;;;;2.75;2.28;;;;;;;6.23;100.00;96688.69;8352894;28;20044;-59
2021/03/16 13:57:33;;;;;;;2.72;2.50;;;;;;;6.15;100.00;96691.00;8390535;28;20036;-59
2021/03/16 14:01:36;;;;;;;4.15;2.78;;;;;;;6.13;100.00;96687.69;8359029;28;20499;-61
2021/03/16 14:05:39;;;;;;;4.57;2.80;;;;;;;6.22;100.00;96681.75;8357965;28;20445;-57
2021/03/16 14:09:42;;;;;;;3.25;2.65;;;;;;;6.21;100.00;96690.56;8352363;28;20075;-57
2021/03/16 14:13:44;;;;;;;8.25;3.28;;;;;;;6.05;100.00;96682.97;8354823;28;21244;-60
2021/03/16 14:17:48;;;;;;;5.82;2.83;;;;;;;6.16;100.00;96692.69;8391194;28;20041;-57
2021/03/16 14:21:52;;;;;;;5.43;3.58;;;;;;;6.17;100.00;96691.75;8350750;28;20044;-58
2021/03/16 14:25:55;;;;;;;4.55;3.30;;;;;;;5.85;100.00;96687.03;8354291;28;20071;-58
2021/03/16 14:29:58;;;;;;;5.05;3.22;;;;;;;6.08;100.00;96688.00;8358194;28;20051;-60
2021/03/16 14:34:01;;;;;;;4.53;2.88;;;;;;;5.97;100.00;96684.50;8389744;28;20384;-60
2021/03/16 14:38:08;;;;;;;5.45;3.33;;;;;;;6.65;100.00;96689.06;8356218;28;20033;-59
2021/03/16 14:42:11;;;;;;;7.47;3.15;;;;;;;6.87;100.00;96678.63;8349578;28;20041;-60
2021/03/16 14:46:15;;;;;;;3.15;2.85;;;;;;;6.97;99.54;96675.31;8360876;28;20044;-57
2021/03/16 14:50:19;;;;;;;5.25;2.72;;;;;;;7.16;100.00;96674.72;8354102;28;20040;-59
2021/03/16 14:54:22;;;;;;;4.10;2.58;;;;;;;6.73;100.00;96672.75;8390588;28;20055;-58
2021/03/16 14:58:24;;;;;;;3.95;3.33;;;;;;;6.94;100.00;96672.94;8360562;28;20040;-60
2021/03/16 15:02:27;;;;;;;4.82;3.00;;;;;;;6.60;100.00;96678.91;8353676;28;20048;-59
2021/03/16 15:06:31;;;;;;;4.40;2.60;;;;;;;6.59;100.00;96676.41;8366085;28;20047;-60
2021/03/16 15:10:34;;;;;;;6.60;2.90;;;;;;;6.53;100.00;96676.88;8387829;28;20048;-57
2021/03/16 15:14:36;;;;;;;3.88;2.90;;;;;;;6.24;100.00;96674.63;8351330;28;20040;-57
2021/03/16 15:18:39;;;;;;;6.85;3.28;;;;;;;6.06;100.00;96674.19;8352348;28;20434;-55
2021/03/16 15:22:43;;;;;;;6.85;3.55;;;;;;;5.92;100.00;96669.09;8346808;28;20506;-61
2021/03/16 15:26:45;;;;;;;9.27;3.42;;;;;;;5.68;100.00;96663.84;8355962;28;20048;-59
2021/03/16 15:30:48;;;;;;;4.38;3.10;;;;;;;5.87;100.00;96666.78;8387065;28;20067;-59
2021/03/16 15:34:50;;;;;;;5.53;3.70;;;;;;;6.04;100.00;96667.41;8356327;28;20044;-60
2021/03/16 15:38:58;;;;;;;4.45;3.00;;;;;;;5.89;100.00;96666.69;8349756;28;20036;-57
2021/03/16 15:43:01;;;;;;;3.60;2.60;;;;;;;5.76;100.00;96677.19;8337628;28;20529;-58
2021/03/16 15:47:04;;;;;;;6.32;3.42;;;;;;;5.83;100.00;96665.34;8368326;28;20044;-52
2021/03/16 15:51:06;;;;;;;4.50;2.83;;;;;;;5.63;100.00;96660.69;8377017;28;20041;-58
2021/03/16 15:55:13;;;;;;;6.90;3.30;;;;;;;5.67;100.00;96673.44;8355291;28;20041;-58
2021/03/16 15:59:15;;;;;;;4.75;3.10;;;;;;;5.62;100.00;96670.34;8352119;28;20036;-55
2021/03/16 16:03:18;;;;;;;6.00;3.50;;;;;;;5.69;100.00;96661.09;8354146;28;20040;-58
2021/03/16 16:07:21;;;;;;;8.00;4.03;;;;;;;5.32;100.00;96664.66;8384218;28;20055;-59
2021/03/16 16:11:24;;;;;;;6.90;3.33;;;;;;;5.44;100.00;96666.41;8347602;28;20049;-60
2021/03/16 16:15:26;;;;;;;6.00;3.88;;;;;;;5.48;100.00;96663.47;8345383;28;20052;-58
2021/03/16 16:19:30;;;;;;;8.05;3.50;;;;;;;5.53;100.00;96672.75;8346993;28;20060;-58
2021/03/16 16:23:32;;;;;;;5.35;4.03;;;;;;;5.58;100.00;96676.72;8345947;28;20402;-58
2021/03/16 16:27:36;;;;;;;6.47;4.32;;;;;;;5.63;100.00;96676.41;8364936;28;20052;-58
2021/03/16 16:31:38;;;;;;;7.80;4.35;;;;;;;5.55;100.00;96676.94;8360952;28;20051;-59
2021/03/16 16:35:41;;;;;;;6.40;3.85;;;;;;;5.44;100.00;96677.72;8342822;28;20052;-59